Newport, RI (02840)

8:39 PM EDT on September 28, 2016 (GMT -0400)
Historic hill | | Change Station

Elev 85 ft 41.48 °N, 71.31 °W | Updated 9 minutes ago

Overcast
Overcast
58.0 °F
Feels Like 58.0 °F
N
0.0
Wind Variable Wind from West
Gusts 3.0 mph

Today
High -- | Low -- °F
--% Chance of Precip.
Yesterday
High -- | Low -- °F
Precip. -- in
Pressure 30.23 in
Visibility 5.0 miles
Clouds Overcast 700 ft
Dew Point 56 °F
Humidity 93%
Rainfall 0.00 in
Snow Depth Not available.
6:39 AM 6:31 PM
Waning Crescent, 4% visible
METAR KUUU 282353Z AUTO 03010KT 5SM BR OVC007 14/13 A3023 RMK AO2 SLP235 T01440133 10161 20139 53012
Pressure 30.23 in
Visibility 5.0 miles
Clouds Overcast 700 ft
Dew Point 56 °F
Humidity 93%
Rainfall 0.00 in
Snow Depth Not available.
6:39 AM 6:31 PM
Waning Crescent, 4% visible
METAR KUUU 282353Z AUTO 03010KT 5SM BR OVC007 14/13 A3023 RMK AO2 SLP235 T01440133 10161 20139 53012

10-Day Weather Forecast

Almanac

Astronomy

Sep. 28, 2016 Rise Set
Actual Time
Civil Twilight
Nautical Twilight
Astronomical Twilight
Moon
Length of Visible Light
Length of Day
Tomorrow will be .
, % of the Moon is Illuminated

Today's Extremes

State Highs State Lows

Community

WunderPhotos

Upload Photos

1,942,366 photos uploaded!

WunderBlog® & News

Nearby

Air Quality

  Air Quality AQ Index Pollutant
Not available.

Snow Depth

Station Depth Elevation

Earthquake Activity

City Distance Mag. Time & Date
Minimum magnitude displayed is 2.5.

Coastal Water Temperatures

Place Temperature

Stations

Nearby Weather Stations

Station Location Temp. Windchill Dew Point Humidity Wind Precip. Elev Updated Type
                   

Watches & Warnings

There are currently no watches in effect.